Time;durP1;ratioP1;P1;durP2;ratioP2;P2;SDS_P1;SDS_P2;PMS_P1;PMS_P2;Temp;Humidity;BMP_temperature;BMP_pressure;BME280_temperature;BME280_humidity;BME280_pressure;Samples;Min_cycle;Max_cycle;Signal;HPM_P1;HPM_P2
2021/06/25 00:01:21;;;;;;;24.05;5.17;;;;;;;22.00;72.74;100687.08;1713011;82;20885;-40
2021/06/25 00:03:48;;;;;;;34.43;4.87;;;;;;;21.99;72.17;100693.78;1678311;84;21022;-40
2021/06/25 00:06:14;;;;;;;24.90;4.70;;;;;;;22.00;72.89;100694.16;1713636;82;20945;-40
2021/06/25 00:08:41;;;;;;;46.73;6.37;;;;;;;22.03;74.93;100696.59;1711705;83;21163;-40
2021/06/25 00:11:08;;;;;;;75.45;7.90;;;;;;;21.99;75.15;100703.83;1677191;85;20948;-40
2021/06/25 00:13:34;;;;;;;62.50;7.12;;;;;;;21.96;74.81;100701.39;1713113;82;20943;-40
2021/06/25 00:16:01;;;;;;;65.78;7.92;;;;;;;21.92;74.55;100707.80;1676856;84;21052;-40
2021/06/25 00:18:28;;;;;;;61.10;7.65;;;;;;;21.87;74.71;100704.13;1679121;85;20971;-41
2021/06/25 00:20:54;;;;;;;58.23;9.05;;;;;;;21.85;75.13;100701.20;1679498;84;21153;-40
2021/06/25 00:23:21;;;;;;;49.83;7.60;;;;;;;21.82;75.63;100700.94;1713271;82;20976;-40
2021/06/25 00:25:47;;;;;;;50.83;7.60;;;;;;;21.79;76.09;100687.96;1678953;85;21011;-40
2021/06/25 00:28:14;;;;;;;52.40;7.90;;;;;;;21.75;76.41;100687.30;1712663;82;20991;-39
2021/06/25 00:30:42;;;;;;;65.15;7.22;;;;;;;21.71;76.64;100692.38;1712059;83;20962;-40
2021/06/25 00:33:10;;;;;;;58.40;6.85;;;;;;;21.70;76.89;100691.14;1712320;83;21170;-40
2021/06/25 00:35:37;;;;;;;45.48;6.28;;;;;;;21.66;77.33;100694.45;1678901;85;20979;-40
2021/06/25 00:38:05;;;;;;;62.03;6.10;;;;;;;21.62;77.54;100689.81;1713283;82;21513;-40
2021/06/25 00:40:33;;;;;;;85.70;8.28;;;;;;;21.58;77.91;100688.77;1678356;85;21532;-40
2021/06/25 00:42:59;;;;;;;59.88;5.75;;;;;;;21.56;78.83;100693.28;1712986;83;20932;-41
2021/06/25 00:45:26;;;;;;;52.35;5.00;;;;;;;21.49;79.78;100684.45;1677026;85;22103;-41
2021/06/25 00:47:53;;;;;;;50.63;5.70;;;;;;;21.45;80.88;100683.40;1676947;85;20987;-41
2021/06/25 00:50:26;;;;;;;67.15;7.60;;;;;;;21.40;81.54;100683.70;1711310;83;20898;-41
2021/06/25 00:52:53;;;;;;;53.38;6.33;;;;;;;21.34;81.83;100678.78;1677131;85;21486;-40
2021/06/25 00:55:22;;;;;;;57.53;5.60;;;;;;;21.29;82.35;100682.17;1678990;85;21265;-40
2021/06/25 00:57:48;;;;;;;78.12;7.37;;;;;;;21.24;82.97;100683.30;1713808;83;21165;-40
2021/06/25 01:00:17;;;;;;;68.75;6.75;;;;;;;21.19;83.49;100685.81;1713757;83;20916;-40
2021/06/25 01:02:43;;;;;;;74.00;7.78;;;;;;;21.14;83.56;100688.74;1679099;85;20940;-39
2021/06/25 01:05:11;;;;;;;51.88;5.67;;;;;;;21.08;84.05;100674.61;1679002;85;21023;-40
2021/06/25 01:07:37;;;;;;;50.43;6.10;;;;;;;21.03;84.45;100677.53;1679222;85;20983;-40
2021/06/25 01:10:06;;;;;;;46.98;5.30;;;;;;;21.01;85.75;100678.09;1678965;85;21098;-40
2021/06/25 01:12:33;;;;;;;17.75;4.90;;;;;;;20.97;86.37;100681.85;1712899;83;20934;-41
2021/06/25 01:15:00;;;;;;;37.95;5.50;;;;;;;20.92;86.61;100679.94;1677154;85;20928;-40
2021/06/25 01:17:36;;;;;;;36.00;6.25;;;;;;;20.88;86.69;100675.80;1711755;83;20968;-41
2021/06/25 01:20:07;;;;;;;24.47;4.72;;;;;;;20.83;86.87;100678.68;1710739;83;21510;-41
2021/06/25 01:22:39;;;;;;;36.08;3.98;;;;;;;20.81;87.23;100672.66;1679096;85;21111;-38
2021/06/25 01:25:19;;;;;;;18.17;4.03;;;;;;;20.79;87.85;100668.83;1715017;82;20984;-38
2021/06/25 01:27:48;;;;;;;22.02;4.53;;;;;;;20.74;88.21;100666.91;1714124;82;20980;-38
2021/06/25 01:30:17;;;;;;;20.80;4.62;;;;;;;20.71;88.35;100673.63;1713047;83;21499;-38
2021/06/25 01:32:45;;;;;;;33.35;6.67;;;;;;;20.68;88.69;100673.36;1712590;83;20949;-38
2021/06/25 01:35:12;;;;;;;33.90;5.33;;;;;;;20.65;88.94;100676.17;1678018;85;21066;-38
2021/06/25 01:37:39;;;;;;;53.15;6.20;;;;;;;20.61;89.11;100674.66;1712544;83;20957;-39
2021/06/25 01:40:08;;;;;;;33.08;4.85;;;;;;;20.60;89.08;100670.79;1714217;82;21019;-39
2021/06/25 01:42:36;;;;;;;52.03;5.92;;;;;;;20.62;89.31;100668.46;1713928;82;20960;-39
2021/06/25 01:45:12;;;;;;;47.53;6.47;;;;;;;20.67;89.64;100669.04;1679191;85;20980;-40
2021/06/25 01:47:40;;;;;;;32.20;5.50;;;;;;;20.68;89.65;100668.55;1712571;82;21140;-40
2021/06/25 01:50:11;;;;;;;50.92;6.42;;;;;;;20.67;89.69;100669.04;1676977;85;21510;-39
2021/06/25 01:52:47;;;;;;;65.67;8.10;;;;;;;20.67;89.86;100667.72;1711605;83;21439;-39
2021/06/25 01:55:14;;;;;;;40.15;5.90;;;;;;;20.67;89.73;100672.13;1677163;85;20976;-40
2021/06/25 01:57:41;;;;;;;57.00;5.53;;;;;;;20.68;89.79;100672.05;1677054;85;20975;-40
2021/06/25 02:00:09;;;;;;;59.75;6.30;;;;;;;20.70;89.91;100667.99;1701373;83;21159;-40
2021/06/25 02:02:36;;;;;;;85.03;7.15;;;;;;;20.72;90.05;100669.23;1711477;83;20929;-40
2021/06/25 02:05:04;;;;;;;65.37;7.40;;;;;;;20.73;90.02;100666.98;1676940;85;20944;-41
2021/06/25 02:07:30;;;;;;;43.70;5.70;;;;;;;20.74;90.03;100662.96;1677596;85;20947;-40
2021/06/25 02:09:57;;;;;;;45.52;5.87;;;;;;;20.79;90.03;100659.62;1679068;85;21286;-41
2021/06/25 02:12:25;;;;;;;30.60;5.58;;;;;;;20.77;89.86;100655.34;1678982;85;20984;-40
2021/06/25 02:14:53;;;;;;;29.07;5.90;;;;;;;20.77;89.49;100659.29;1678880;85;20979;-40
2021/06/25 02:17:21;;;;;;;23.75;4.72;;;;;;;20.79;89.27;100649.52;1679005;85;20967;-40
2021/06/25 02:19:47;;;;;;;28.32;5.12;;;;;;;20.77;88.61;100654.03;1679097;85;20948;-40
2021/06/25 02:22:14;;;;;;;21.80;5.12;;;;;;;20.76;88.29;100651.02;1679137;84;20948;-40
2021/06/25 02:24:41;;;;;;;25.30;5.00;;;;;;;20.76;88.24;100647.08;1678939;85;21109;-40
2021/06/25 02:27:09;;;;;;;37.05;5.30;;;;;;;20.74;88.27;100652.45;1678957;85;21468;-40
2021/06/25 02:29:36;;;;;;;29.05;5.30;;;;;;;20.76;88.75;100656.28;1679063;85;20908;-40
2021/06/25 02:32:03;;;;;;;34.75;5.05;;;;;;;20.73;88.80;100656.02;1679067;85;21043;-41
2021/06/25 02:34:30;;;;;;;41.42;5.60;;;;;;;20.73;88.82;100657.78;1679182;85;21019;-41
2021/06/25 02:36:56;;;;;;;40.45;5.35;;;;;;;20.75;88.61;100654.59;1679043;85;22046;-41
2021/06/25 02:39:23;;;;;;;69.82;6.80;;;;;;;20.79;88.42;100644.27;1678959;85;21568;-41
2021/06/25 02:41:50;;;;;;;57.98;7.55;;;;;;;20.82;87.97;100634.91;1679177;85;21767;-41
2021/06/25 02:44:16;;;;;;;78.65;7.05;;;;;;;20.86;87.62;100639.08;1679323;85;21438;-40
2021/06/25 02:46:43;;;;;;;59.50;6.97;;;;;;;20.88;87.31;100635.88;1679083;85;21569;-40
2021/06/25 02:49:09;;;;;;;43.23;6.10;;;;;;;20.92;87.18;100636.07;1713827;82;21130;-41
2021/06/25 02:51:36;;;;;;;50.83;6.10;;;;;;;20.97;86.77;100637.13;1712841;83;20984;-41
2021/06/25 02:54:04;;;;;;;29.85;5.40;;;;;;;21.03;86.35;100631.95;1678924;85;20959;-41
2021/06/25 02:56:30;;;;;;;31.23;5.80;;;;;;;21.06;86.04;100629.12;1712091;82;22264;-39
2021/06/25 02:58:57;;;;;;;29.98;6.28;;;;;;;21.13;85.38;100633.55;1678915;85;21654;-39
2021/06/25 03:01:24;;;;;;;26.10;6.12;;;;;;;21.18;84.68;100630.17;1679173;85;22120;-40
2021/06/25 03:03:50;;;;;;;45.28;7.05;;;;;;;21.23;84.04;100633.39;1713051;83;20973;-40
2021/06/25 03:06:17;;;;;;;31.68;5.75;;;;;;;21.29;83.62;100629.52;1678098;85;21509;-40
2021/06/25 03:08:43;;;;;;;59.13;7.50;;;;;;;21.35;83.05;100634.44;1713457;83;21573;-40
2021/06/25 03:11:10;;;;;;;54.50;7.00;;;;;;;21.42;82.81;100633.56;1713405;82;21048;-41
2021/06/25 03:13:38;;;;;;;56.92;6.67;;;;;;;21.50;82.86;100636.11;1663922;85;22720;-40
2021/06/25 03:16:04;;;;;;;66.55;6.92;;;;;;;21.60;83.00;100638.16;1661632;86;21500;-41
2021/06/25 03:18:31;;;;;;;63.60;6.75;;;;;;;21.70;82.93;100634.52;1663800;86;20941;-40
2021/06/25 03:20:57;;;;;;;59.85;8.50;;;;;;;21.81;82.68;100640.80;1664020;86;20960;-40
2021/06/25 03:23:24;;;;;;;56.92;7.33;;;;;;;21.92;82.41;100632.22;1663834;85;20977;-40
2021/06/25 03:25:51;;;;;;;50.10;7.45;;;;;;;22.02;81.69;100633.80;1663915;86;21188;-40
2021/06/25 03:28:17;;;;;;;43.95;7.25;;;;;;;22.12;81.49;100627.96;1663775;86;20985;-41
2021/06/25 03:30:44;;;;;;;33.65;6.00;;;;;;;22.19;81.40;100631.39;1663900;85;21032;-40
2021/06/25 03:33:11;;;;;;;69.82;6.95;;;;;;;22.28;81.11;100622.05;1663967;85;20957;-40
2021/06/25 03:35:38;;;;;;;98.12;10.00;;;;;;;22.35;80.17;100619.86;1664122;86;20941;-41
2021/06/25 03:38:06;;;;;;;65.22;7.70;;;;;;;22.46;79.61;100623.11;1663860;85;22350;-40
2021/06/25 03:40:34;;;;;;;55.15;6.55;;;;;;;22.55;78.89;100625.64;1663825;86;21029;-40
2021/06/25 03:43:02;;;;;;;32.95;5.78;;;;;;;22.61;78.19;100619.95;1663911;86;21044;-40
2021/06/25 03:45:29;;;;;;;62.60;6.60;;;;;;;22.66;78.07;100626.63;1663860;85;21553;-40
2021/06/25 03:47:56;;;;;;;57.40;6.35;;;;;;;22.71;78.53;100624.14;1663743;85;21061;-40
2021/06/25 03:50:22;;;;;;;34.33;5.85;;;;;;;22.71;79.14;100615.73;1663867;86;21199;-41
2021/06/25 03:52:49;;;;;;;27.05;5.70;;;;;;;22.77;79.65;100615.35;1663852;86;21037;-41
2021/06/25 03:55:15;;;;;;;22.10;5.05;;;;;;;22.85;80.11;100610.84;1663936;85;20942;-41
2021/06/25 03:57:42;;;;;;;37.38;6.42;;;;;;;22.91;80.15;100613.55;1663842;86;21036;-41
2021/06/25 04:00:14;;;;;;;32.08;5.75;;;;;;;22.95;79.81;100610.61;1663950;86;20933;-41
2021/06/25 04:02:45;;;;;;;49.45;6.00;;;;;;;23.04;79.28;100606.95;1663995;85;21130;-41
2021/06/25 04:05:11;;;;;;;44.50;5.78;;;;;;;23.18;79.44;100604.22;1664135;86;21008;-41
2021/06/25 04:07:38;;;;;;;41.65;5.55;;;;;;;23.42;79.16;100602.17;1663758;85;21020;-43
2021/06/25 04:10:06;;;;;;;35.38;6.25;;;;;;;23.71;78.03;100600.56;1663957;85;21001;-41
2021/06/25 04:12:33;;;;;;;17.48;5.47;;;;;;;24.05;76.49;100598.63;1663964;86;21044;-41
2021/06/25 04:15:00;;;;;;;27.75;4.70;;;;;;;24.37;74.82;100594.07;1663833;85;21053;-41
2021/06/25 04:17:27;;;;;;;24.02;4.45;;;;;;;24.67;73.47;100596.21;1663635;86;20953;-41
2021/06/25 04:19:54;;;;;;;17.95;5.15;;;;;;;24.98;72.61;100593.52;1664023;86;20977;-41
2021/06/25 04:22:20;;;;;;;23.55;4.53;;;;;;;25.25;71.10;100584.74;1644527;86;20969;-39
2021/06/25 04:24:48;;;;;;;18.57;4.55;;;;;;;25.51;70.45;100577.89;1663792;86;21032;-40
2021/06/25 04:27:15;;;;;;;17.50;4.47;;;;;;;25.77;69.24;100584.22;1663826;86;21182;-40
2021/06/25 04:29:42;;;;;;;15.50;4.05;;;;;;;26.02;68.02;100587.52;1663682;86;20997;-40
2021/06/25 04:32:09;;;;;;;15.08;3.60;;;;;;;26.21;66.18;100578.08;1663968;85;20949;-40
2021/06/25 04:34:35;;;;;;;19.92;4.17;;;;;;;26.34;66.53;100578.73;1663990;86;21044;-41
2021/06/25 04:37:02;;;;;;;20.90;4.30;;;;;;;26.53;66.44;100578.52;1663926;86;20980;-41
2021/06/25 04:39:29;;;;;;;21.05;4.45;;;;;;;26.71;65.37;100580.59;1663850;85;21264;-41
2021/06/25 04:41:57;;;;;;;15.55;3.62;;;;;;;26.91;64.58;100581.56;1663781;85;20992;-41
2021/06/25 04:44:24;;;;;;;10.55;3.52;;;;;;;27.14;63.83;100580.88;1664014;85;20961;-40
2021/06/25 04:46:51;;;;;;;16.05;4.12;;;;;;;27.32;63.18;100578.93;1663936;85;21064;-40
2021/06/25 04:49:17;;;;;;;16.23;3.80;;;;;;;27.46;63.40;100575.05;1663937;85;21024;-40
2021/06/25 04:51:44;;;;;;;21.65;3.98;;;;;;;27.53;62.17;100570.42;1663994;86;21170;-40
2021/06/25 04:54:11;;;;;;;25.08;4.00;;;;;;;27.73;62.21;100566.48;1664243;85;21550;-41
2021/06/25 04:56:38;;;;;;;12.28;3.72;;;;;;;28.02;62.40;100566.13;1664107;86;20981;-41
2021/06/25 04:59:04;;;;;;;8.45;3.95;;;;;;;28.28;61.41;100566.44;1663788;86;20988;-41
2021/06/25 05:01:32;;;;;;;10.55;4.03;;;;;;;28.49;61.80;100572.09;1663986;86;20996;-41
2021/06/25 05:03:59;;;;;;;10.98;3.85;;;;;;;28.74;60.98;100569.80;1664084;86;21154;-41
2021/06/25 05:06:26;;;;;;;11.15;4.47;;;;;;;28.96;60.28;100575.28;1663968;86;20969;-41
2021/06/25 05:08:52;;;;;;;14.83;3.62;;;;;;;29.02;58.00;100579.19;1664006;86;20993;-40
2021/06/25 05:11:20;;;;;;;18.25;4.00;;;;;;;29.02;59.17;100582.68;1664017;86;21009;-40
2021/06/25 05:13:47;;;;;;;7.65;3.10;;;;;;;29.18;56.99;100582.55;1664064;85;20988;-40
2021/06/25 05:16:14;;;;;;;14.87;3.50;;;;;;;29.33;57.31;100581.09;1663900;86;21100;-40
2021/06/25 05:18:41;;;;;;;12.18;4.00;;;;;;;29.48;57.13;100585.45;1663910;86;20993;-40
2021/06/25 05:21:07;;;;;;;10.45;3.62;;;;;;;29.63;56.18;100584.92;1664179;85;21060;-41
2021/06/25 05:23:34;;;;;;;13.58;3.70;;;;;;;29.71;55.69;100585.03;1664059;85;20989;-41
2021/06/25 05:26:02;;;;;;;8.30;3.50;;;;;;;29.70;55.63;100589.17;1664232;86;20989;-40
2021/06/25 05:28:28;;;;;;;9.55;4.22;;;;;;;29.72;56.49;100589.37;1644480;86;21044;-40
2021/06/25 05:30:55;;;;;;;12.00;3.70;;;;;;;29.71;55.01;100587.70;1663979;86;20946;-40
2021/06/25 05:33:22;;;;;;;8.90;4.15;;;;;;;29.81;55.31;100582.30;1664024;86;20992;-40
2021/06/25 05:35:48;;;;;;;12.13;4.12;;;;;;;29.94;54.00;100584.08;1663916;86;21490;-40
2021/06/25 05:38:17;;;;;;;11.97;4.03;;;;;;;30.03;53.75;100585.03;1663963;85;21495;-40
2021/06/25 05:40:44;;;;;;;7.67;3.80;;;;;;;30.06;53.95;100591.88;1664154;86;21145;-40
2021/06/25 05:43:11;;;;;;;10.03;3.98;;;;;;;30.15;54.34;100596.79;1714110;83;20948;-41
2021/06/25 05:45:38;;;;;;;9.88;3.80;;;;;;;30.36;52.94;100594.64;1701462;83;21263;-40
2021/06/25 05:48:07;;;;;;;6.30;3.22;;;;;;;30.61;52.02;100601.52;1712528;83;21023;-40
2021/06/25 05:50:35;;;;;;;15.90;4.08;;;;;;;30.80;52.70;100606.33;1677641;85;20948;-40
2021/06/25 05:53:01;;;;;;;9.53;3.70;;;;;;;31.00;52.95;100600.76;1679036;85;21729;-40
2021/06/25 05:55:28;;;;;;;8.00;3.80;;;;;;;31.02;52.06;100605.45;1678925;85;20952;-40
2021/06/25 05:57:54;;;;;;;8.60;3.67;;;;;;;31.10;52.11;100597.45;1712560;82;21518;-40
2021/06/25 06:00:21;;;;;;;13.60;3.95;;;;;;;31.14;51.47;100608.67;1676794;84;21604;-40
2021/06/25 06:02:48;;;;;;;14.05;3.87;;;;;;;31.22;52.20;100607.40;1677068;85;21588;-40
2021/06/25 06:05:15;;;;;;;12.00;3.60;;;;;;;31.38;51.62;100606.63;1712510;83;21529;-40
2021/06/25 06:07:42;;;;;;;15.63;3.87;;;;;;;31.54;49.72;100601.82;1711994;83;21542;-40
2021/06/25 06:10:10;;;;;;;8.98;3.40;;;;;;;31.60;48.63;100594.99;1678593;85;21552;-40
2021/06/25 06:12:37;;;;;;;9.28;3.65;;;;;;;31.62;47.99;100591.17;1712875;83;21008;-40
2021/06/25 06:15:07;;;;;;;11.65;4.00;;;;;;;31.50;47.47;100582.61;1713212;82;20952;-40
2021/06/25 06:17:39;;;;;;;13.35;4.55;;;;;;;31.38;49.01;100589.24;1712372;83;21843;-40
2021/06/25 06:20:08;;;;;;;15.25;3.87;;;;;;;31.38;49.73;100579.41;1679038;84;20992;-41
2021/06/25 06:33:48;;;;;;;9.03;3.70;;;;;;;31.84;48.13;100588.91;1713380;83;20983;-41
2021/06/25 06:39:05;;;;;;;6.87;3.35;;;;;;;32.02;48.58;100587.41;1711692;82;21494;-40
2021/06/25 06:41:32;;;;;;;7.53;3.52;;;;;;;31.86;49.01;100589.57;1727809;83;20932;-40
2021/06/25 06:43:59;;;;;;;14.47;3.77;;;;;;;31.85;48.81;100589.23;1727683;83;21140;-41
2021/06/25 06:46:27;;;;;;;11.70;3.70;;;;;;;32.06;48.83;100590.56;1727428;82;21011;-40
2021/06/25 06:48:54;;;;;;;8.13;3.67;;;;;;;32.41;48.14;100589.09;1682896;84;20956;-41
2021/06/25 06:51:21;;;;;;;12.33;3.62;;;;;;;32.61;46.76;100586.38;1682890;84;20996;-42
2021/06/25 06:53:49;;;;;;;16.87;3.60;;;;;;;32.76;47.56;100593.73;1682982;84;21027;-41
2021/06/25 06:56:20;;;;;;;6.92;3.72;;;;;;;32.89;46.07;100594.05;1727636;83;21763;-41
2021/06/25 06:58:48;;;;;;;12.30;3.83;;;;;;;32.82;46.41;100596.53;1727567;83;21545;-41
2021/06/25 07:01:15;;;;;;;9.30;3.77;;;;;;;32.88;46.29;100592.89;1727664;82;21012;-40
2021/06/25 07:03:42;;;;;;;15.05;3.62;;;;;;;33.03;46.07;100590.33;1727815;83;21012;-41
2021/06/25 07:06:08;;;;;;;12.73;3.72;;;;;;;33.01;46.00;100595.03;1727674;83;20933;-40
2021/06/25 07:08:36;;;;;;;19.57;3.17;;;;;;;32.92;45.46;100591.02;1727657;83;21572;-41
2021/06/25 07:11:03;;;;;;;15.00;3.60;;;;;;;32.92;45.93;100596.37;1682899;84;21051;-41
2021/06/25 07:13:29;;;;;;;11.22;3.42;;;;;;;33.01;45.06;100592.35;1682970;84;20984;-41
2021/06/25 07:15:56;;;;;;;14.73;3.60;;;;;;;33.10;44.36;100589.95;1727713;82;21008;-41
2021/06/25 07:18:23;;;;;;;14.07;3.45;;;;;;;33.22;43.95;100592.60;1682949;85;21000;-42
2021/06/25 07:20:50;;;;;;;8.55;3.47;;;;;;;33.43;43.77;100591.69;1727777;82;21922;-40
2021/06/25 07:23:17;;;;;;;15.63;3.90;;;;;;;33.61;43.23;100588.23;1683052;84;20932;-40
2021/06/25 07:25:45;;;;;;;14.03;3.95;;;;;;;33.77;43.36;100587.29;1683004;85;21019;-42
2021/06/25 07:28:11;;;;;;;10.80;3.72;;;;;;;33.91;43.00;100587.52;1727887;83;21960;-42
2021/06/25 07:30:38;;;;;;;14.93;3.77;;;;;;;34.06;42.51;100580.88;1682915;84;20909;-39
2021/06/25 07:33:05;;;;;;;16.95;4.33;;;;;;;34.10;42.23;100580.34;1683017;84;21132;-40
2021/06/25 07:35:31;;;;;;;15.13;4.10;;;;;;;34.16;42.17;100580.14;1727566;83;20976;-41
2021/06/25 07:37:58;;;;;;;13.68;3.33;;;;;;;34.23;42.22;100581.57;1699623;83;20952;-41
2021/06/25 07:40:24;;;;;;;7.70;3.27;;;;;;;34.46;42.58;100587.41;1711424;83;21016;-41
2021/06/25 07:42:51;;;;;;;5.75;3.37;;;;;;;34.60;42.35;100587.13;1711547;83;21644;-41
2021/06/25 07:45:18;;;;;;;8.30;3.27;;;;;;;34.68;42.09;100583.84;1711506;82;21948;-41
2021/06/25 07:47:45;;;;;;;12.43;3.10;;;;;;;34.61;41.02;100578.05;1711437;83;20993;-41
2021/06/25 07:50:14;;;;;;;19.95;3.30;;;;;;;34.49;43.35;100579.03;1711715;83;21024;-42
2021/06/25 07:52:41;;;;;;;9.18;3.40;;;;;;;34.52;42.35;100579.48;1711335;83;21048;-40
2021/06/25 07:55:08;;;;;;;10.45;3.67;;;;;;;34.67;42.57;100572.77;1711819;83;21608;-42
2021/06/25 07:57:35;;;;;;;10.00;3.83;;;;;;;34.81;41.82;100573.79;1711417;83;21137;-42
2021/06/25 08:00:03;;;;;;;10.18;3.20;;;;;;;34.99;41.78;100570.39;1711477;83;21001;-42
2021/06/25 08:02:31;;;;;;;11.57;4.97;;;;;;;35.01;41.54;100569.23;1711075;83;20941;-41
2021/06/25 08:04:58;;;;;;;12.30;4.15;;;;;;;34.96;42.33;100572.44;1711414;83;21509;-41
2021/06/25 08:07:25;;;;;;;7.30;3.67;;;;;;;34.92;43.04;100569.80;1711696;82;21505;-42
2021/06/25 08:09:51;;;;;;;5.55;2.95;;;;;;;34.92;44.22;100573.83;1711710;83;21777;-41
2021/06/25 08:12:18;;;;;;;7.37;2.90;;;;;;;34.98;43.82;100576.79;1711444;83;20936;-41
2021/06/25 08:14:45;;;;;;;12.50;3.30;;;;;;;35.07;42.79;100573.03;1711374;83;21506;-41
2021/06/25 08:17:11;;;;;;;12.98;2.95;;;;;;;35.23;42.78;100570.63;1711471;83;21581;-41
2021/06/25 08:19:38;;;;;;;9.65;2.83;;;;;;;35.37;41.93;100570.27;1711419;83;20964;-41
2021/06/25 08:22:04;;;;;;;10.35;2.60;;;;;;;35.39;42.42;100573.60;1711620;82;21143;-41
2021/06/25 08:24:34;;;;;;;16.87;3.45;;;;;;;35.54;40.80;100564.17;1711399;83;20956;-42
2021/06/25 08:27:01;;;;;;;9.30;3.20;;;;;;;35.60;40.20;100561.23;1711683;83;21619;-42
2021/06/25 08:29:29;;;;;;;8.43;3.12;;;;;;;35.65;40.08;100560.98;1711392;83;20945;-41
2021/06/25 08:31:55;;;;;;;7.28;3.30;;;;;;;35.67;39.54;100560.78;1711489;83;20948;-41
2021/06/25 08:34:22;;;;;;;10.80;3.20;;;;;;;35.64;38.67;100555.78;1711518;83;21107;-41
2021/06/25 08:36:50;;;;;;;8.80;3.22;;;;;;;35.53;38.79;100551.25;1711367;83;20933;-41
2021/06/25 08:41:45;;;;;;;13.50;3.00;;;;;;;35.69;39.30;100543.11;1797646;79;22597;-42
2021/06/25 08:44:12;;;;;;;10.90;3.05;;;;;;;35.72;39.53;100547.57;1757467;80;21461;-40
2021/06/25 08:46:39;;;;;;;10.43;2.80;;;;;;;35.79;38.69;100549.83;1757410;81;21135;-40
2021/06/25 08:49:05;;;;;;;8.00;3.22;;;;;;;35.75;39.42;100536.95;1757233;81;20980;-40
2021/06/25 08:51:32;;;;;;;10.82;2.95;;;;;;;35.75;38.12;100540.98;1757711;81;21004;-40
2021/06/25 08:53:59;;;;;;;210.78;11.33;;;;;;;35.66;38.86;100534.40;1757267;81;20973;-40
2021/06/25 08:56:32;;;;;;;10.78;2.85;;;;;;;35.71;40.31;100532.98;1757611;81;21493;-40
2021/06/25 08:59:00;;;;;;;16.93;3.30;;;;;;;35.83;38.97;100542.72;1757498;81;21512;-40
2021/06/25 09:01:33;;;;;;;19.32;3.58;;;;;;;35.71;39.15;100536.48;1757464;81;21438;-42
2021/06/25 09:04:01;;;;;;;23.47;3.47;;;;;;;35.65;38.62;100539.95;1757496;81;21003;-41
2021/06/25 09:06:28;;;;;;;101.33;7.62;;;;;;;35.56;39.06;100530.36;1757390;81;20956;-39
2021/06/25 09:09:13;;;;;;;24.35;3.45;;;;;;;35.63;39.69;100530.75;1757327;80;21007;-42
2021/06/25 09:11:43;;;;;;;10.18;3.10;;;;;;;35.89;38.68;100519.05;1757412;81;21932;-41
2021/06/25 09:14:11;;;;;;;8.38;2.25;;;;;;;35.93;37.71;100524.36;1757194;81;20964;-42
2021/06/25 09:16:38;;;;;;;15.10;3.30;;;;;;;35.99;37.40;100518.19;1757387;81;20954;-42
2021/06/25 09:19:17;;;;;;;20.27;3.00;;;;;;;36.08;38.70;100521.61;1757333;80;20948;-41
2021/06/25 09:21:59;;;;;;;9.33;2.37;;;;;;;36.31;37.14;100519.17;1757782;80;20956;-41
2021/06/25 09:24:26;;;;;;;6.50;2.30;;;;;;;36.36;37.61;100520.25;1757586;81;21091;-41
2021/06/25 09:26:59;;;;;;;7.60;2.40;;;;;;;36.53;37.67;100519.98;1757256;81;21998;-41
2021/06/25 09:29:33;;;;;;;12.65;2.85;;;;;;;36.64;34.71;100512.66;1722419;83;20967;-42
2021/06/25 09:31:59;;;;;;;13.68;2.35;;;;;;;36.59;33.76;100511.09;1723587;82;22176;-42
2021/06/25 09:34:50;;;;;;;13.48;3.10;;;;;;;36.51;33.58;100501.80;1724225;83;20978;-40
2021/06/25 09:37:19;;;;;;;8.78;2.77;;;;;;;36.46;33.38;100504.23;1722929;81;21107;-41
2021/06/25 09:40:00;;;;;;;7.15;2.30;;;;;;;36.47;33.57;100507.24;1696924;84;21115;-41
2021/06/25 09:42:26;;;;;;;11.68;2.42;;;;;;;36.44;33.68;100506.30;1700490;84;21576;-41
2021/06/25 09:45:09;;;;;;;11.00;2.33;;;;;;;36.44;33.84;100504.95;1695903;84;21043;-41
2021/06/25 09:47:54;;;;;;;8.68;2.30;;;;;;;36.64;33.96;100508.62;1695721;83;20983;-42
2021/06/25 09:50:33;;;;;;;4.22;2.37;;;;;;;36.86;33.30;100503.12;1695960;84;21162;-42
2021/06/25 09:53:05;;;;;;;9.60;1.92;;;;;;;37.00;33.27;100497.28;1695417;84;21039;-41
2021/06/25 09:55:56;;;;;;;18.48;2.33;;;;;;;37.22;31.30;100506.58;1695505;84;21007;-41
2021/06/25 10:04:01;;;;;;;6.62;2.30;;;;;;;36.89;32.24;100501.89;1691940;84;21166;-41
2021/06/25 10:06:32;;;;;;;5.80;2.60;;;;;;;36.90;32.07;100497.63;1669159;85;20944;-42
2021/06/25 10:08:59;;;;;;;4.10;2.30;;;;;;;36.89;32.59;100489.23;1684445;84;21051;-42
2021/06/25 10:11:31;;;;;;;3.27;2.27;;;;;;;36.86;32.02;100490.98;1695304;84;21003;-42
2021/06/25 10:14:01;;;;;;;11.65;2.30;;;;;;;36.78;32.21;100487.13;1695335;84;20959;-40
2021/06/25 10:16:28;;;;;;;11.70;2.22;;;;;;;36.86;33.17;100475.31;1695522;84;21102;-40
2021/06/25 10:18:57;;;;;;;8.25;2.55;;;;;;;37.01;33.21;100482.77;1695322;83;20932;-40
2021/06/25 10:21:26;;;;;;;8.48;2.30;;;;;;;37.05;32.67;100483.20;1695526;84;21007;-40
2021/06/25 10:23:58;;;;;;;12.70;2.40;;;;;;;37.10;32.27;100478.02;1695301;84;21091;-40
2021/06/25 10:26:24;;;;;;;10.48;2.65;;;;;;;36.96;32.68;100487.38;1695525;84;21580;-41
2021/06/25 10:28:53;;;;;;;12.88;2.30;;;;;;;36.92;33.22;100488.83;1695405;84;21831;-41
2021/06/25 10:31:22;;;;;;;8.68;2.37;;;;;;;36.79;32.66;100482.05;1695359;84;21008;-41
2021/06/25 10:33:50;;;;;;;10.90;2.27;;;;;;;36.79;32.37;100485.56;1695589;84;21520;-41
2021/06/25 10:36:23;;;;;;;13.70;2.30;;;;;;;36.82;32.48;100485.69;1695325;84;21015;-41
2021/06/25 10:38:49;;;;;;;7.47;2.50;;;;;;;37.04;32.03;100480.19;1694086;84;20956;-40
2021/06/25 10:41:18;;;;;;;10.40;2.70;;;;;;;37.14;31.71;100484.67;1695235;83;21960;-41
2021/06/25 10:43:50;;;;;;;13.50;2.42;;;;;;;37.22;33.11;100475.02;1695295;84;20917;-41
2021/06/25 10:46:32;;;;;;;15.18;2.77;;;;;;;37.41;32.03;100475.27;1695636;84;20914;-41
2021/06/25 10:49:08;;;;;;;6.10;2.20;;;;;;;37.42;31.85;100470.72;1695377;84;20984;-41
2021/06/25 10:51:38;;;;;;;7.10;2.20;;;;;;;37.43;31.36;100475.08;1695506;84;21050;-41
2021/06/25 10:54:19;;;;;;;8.15;2.58;;;;;;;37.30;31.82;100465.09;1695280;84;21161;-41
2021/06/25 10:56:54;;;;;;;9.88;2.30;;;;;;;37.20;32.55;100469.01;1695156;83;20956;-41
2021/06/25 10:59:28;;;;;;;;;;;;;;;37.25;32.72;100465.70;1697720;84;21016;-41
2021/06/25 11:02:04;;;;;;;9.33;2.30;;;;;;;37.40;33.49;100471.45;1695351;84;20182;-41
2021/06/25 11:04:46;;;;;;;11.60;2.25;;;;;;;37.56;31.00;100464.84;1695467;84;20960;-44
2021/06/25 11:07:17;;;;;;;7.65;2.05;;;;;;;37.62;31.68;100464.81;1695161;84;21830;-42
2021/06/25 11:09:57;;;;;;;13.30;2.37;;;;;;;37.90;31.35;100477.79;1695143;84;21008;-41
2021/06/25 11:12:37;;;;;;;9.08;2.42;;;;;;;38.06;29.87;100478.75;1695402;84;20928;-41
2021/06/25 11:15:10;;;;;;;9.20;2.33;;;;;;;38.09;28.18;100472.91;1695065;84;21095;-42
2021/06/25 11:17:53;;;;;;;5.47;1.90;;;;;;;38.09;28.81;100472.91;1695668;84;20948;-42
2021/06/25 11:20:34;;;;;;;3.15;1.72;;;;;;;38.08;28.61;100460.45;1695550;84;21903;-42
2021/06/25 11:23:17;;;;;;;9.30;2.10;;;;;;;38.13;28.83;100469.80;1695378;84;20960;-42
2021/06/25 11:25:57;;;;;;;9.40;2.30;;;;;;;38.06;28.04;100472.50;1695261;84;21011;-41
2021/06/25 11:28:38;;;;;;;8.43;1.85;;;;;;;37.96;27.67;100462.09;1695557;84;20932;-41
2021/06/25 11:31:17;;;;;;;6.58;1.95;;;;;;;37.88;28.10;100463.14;1695344;83;21491;-41
2021/06/25 11:34:00;;;;;;;14.90;2.08;;;;;;;37.94;28.84;100461.47;1695300;84;21153;-38
2021/06/25 11:36:52;;;;;;;11.63;2.22;;;;;;;37.99;28.69;100460.34;1695470;84;21580;-41
2021/06/25 11:39:32;;;;;;;12.70;1.90;;;;;;;38.03;28.71;100449.46;1695174;84;20976;-41
2021/06/25 11:42:08;;;;;;;7.40;1.60;;;;;;;38.13;28.02;100448.19;1699171;83;21035;-41
2021/06/25 11:44:44;;;;;;;6.60;2.02;;;;;;;38.22;28.17;100446.90;1710479;82;21081;-42
2021/06/25 11:47:20;;;;;;;8.68;2.10;;;;;;;38.29;28.40;100448.23;1700885;84;21069;-42
2021/06/25 11:50:03;;;;;;;6.05;2.00;;;;;;;38.16;27.87;100456.70;1710669;82;21513;-42